Weather History for Llano, TX

Change the Weather History Date:

Friday, October 26, 2012

  Actual Average (KBMQ) Record (KBMQ)
Temperature  
Mean Temperature 54 °F -  
Max Temperature 60 °F 73 °F 86 °F (2011)
Min Temperature 46 °F 55 °F 39 °F (2007)
Degree Days  
Heating Degree Days 11    
Growing Degree Days 4 (Base 50)    
Moisture  
Dew Point 38 °F    
Average Humidity 56    
Maximum Humidity 76    
Minimum Humidity 42    
Precipitation  
Precipitation 0.00 in - - ()
Sea Level Pressure  
Sea Level Pressure 30.23 in    
Wind  
Wind Speed 10 mph (NNE)    
Max Wind Speed 15 mph    
Max Gust Speed 22 mph    
Visibility 10 miles    
Events Thunderstorm    
Averages and records for this station are not official NWS values.
T = Trace of Precipitation, MM = Missing Value Source: NWS Daily Summary

Daily Weather History Graph

Daily Weather History Graph

Search for Another Location

Airport:

Trip Planner

Search our weather history database for the weather conditions in past years. The results will help you decide how hot, cold, wet, or windy it might be!

Date:

Astronomy

Oct. 26, 2012 Rise Set
Actual Time 7:45 AM CDT 6:51 PM CDT
Civil Twilight 7:20 AM CDT 7:15 PM CDT
Nautical Twilight 6:52 AM CDT 7:44 PM CDT
Astronomical Twilight 6:24 AM CDT 8:12 PM CDT
Moon 4:59 PM CDT (10/26) 4:53 AM CDT (10/26)
Length of Visible Light 11h 55m
Length of Day
11h 05m
Waxing Gibbous, 91% of the Moon is Illuminated
Oct 26
Waxing Gibbous
Oct 29
Full
Nov 6
Last Quarter
Nov 13
New
Nov 20
First Quarter

Hourly Weather History & Observations

Time (CDT) Temp. Windchill Dew Point Humidity Pressure Visibility Wind Dir Wind Speed Gust Speed Precip Events Conditions
12:15 AM 60.8 °F - 44.6 °F 55% 30.11 in 10.0 mi NNE 6.9 mph - N/A   Overcast
12:35 AM 60.8 °F - 42.8 °F 52% 30.11 in 10.0 mi NNE 9.2 mph - N/A   Overcast
12:55 AM 60.8 °F - 42.8 °F 52% 30.11 in 10.0 mi NNE 10.4 mph 18.4 mph N/A   Overcast
1:15 AM 60.8 °F - 42.8 °F 52% 30.12 in 10.0 mi NNE 9.2 mph - N/A   Overcast
1:35 AM 59.0 °F - 42.8 °F 55% 30.12 in 10.0 mi North 11.5 mph - N/A   Overcast
1:55 AM 59.0 °F - 41.0 °F 51% 30.13 in 10.0 mi NNE 11.5 mph - N/A   Overcast
2:15 AM 57.2 °F - 41.0 °F 55% 30.13 in 10.0 mi NNE 11.5 mph 17.3 mph N/A   Overcast
2:35 AM 57.2 °F - 41.0 °F 55% 30.14 in 10.0 mi NNE 10.4 mph - N/A   Overcast
2:55 AM 57.2 °F - 41.0 °F 55% 30.13 in 10.0 mi North 12.7 mph - N/A   Overcast
3:15 AM 57.2 °F - 41.0 °F 55% 30.13 in 10.0 mi North 13.8 mph - N/A   Overcast
3:35 AM 57.2 °F - 41.0 °F 55% 30.14 in 10.0 mi North 9.2 mph - N/A   Overcast
3:55 AM 57.2 °F - 39.2 °F 51% 30.14 in 10.0 mi North 8.1 mph - N/A   Overcast
4:15 AM 55.4 °F - 41.0 °F 58% 30.14 in 10.0 mi North 15.0 mph 18.4 mph N/A   Overcast
4:35 AM 55.4 °F - 39.2 °F 54% 30.14 in 10.0 mi NNE 10.4 mph - N/A   Overcast
4:55 AM 55.4 °F - 39.2 °F 54% 30.14 in 10.0 mi NNE 9.2 mph - N/A   Overcast
5:15 AM 55.4 °F - 39.2 °F 54% 30.15 in 10.0 mi NNE 8.1 mph - N/A   Overcast
5:35 AM 55.4 °F - 39.2 °F 54% 30.15 in 10.0 mi NNE 9.2 mph - N/A   Overcast
5:55 AM 53.6 °F - 39.2 °F 58% 30.16 in 10.0 mi North 9.2 mph - N/A   Overcast
6:15 AM 53.6 °F - 39.2 °F 58% 30.17 in 10.0 mi North 12.7 mph - N/A   Overcast
6:35 AM 53.6 °F - 41.0 °F 62% 30.18 in 10.0 mi North 9.2 mph - N/A   Overcast
6:55 AM 51.8 °F - 39.2 °F 62% 30.19 in 10.0 mi North 5.8 mph - N/A   Overcast
7:15 AM 51.8 °F - 39.2 °F 62% 30.19 in 10.0 mi North 12.7 mph 16.1 mph N/A   Overcast
7:35 AM 50.0 °F - 42.8 °F 76% 30.20 in 10.0 mi North 8.1 mph - N/A   Overcast
8:15 AM 51.8 °F - 41.0 °F 67% 30.20 in 10.0 mi North 9.2 mph - N/A   Overcast
8:55 AM 51.8 °F - 39.2 °F 62% 30.23 in 10.0 mi NNW 10.4 mph - N/A   Overcast
9:15 AM 51.8 °F - 39.2 °F 62% 30.24 in 10.0 mi NNW 8.1 mph - N/A   Mostly Cloudy
9:35 AM 51.8 °F - 37.4 °F 58% 30.25 in 10.0 mi North 11.5 mph - N/A Thunderstorm Mostly Cloudy
9:55 AM 51.8 °F - 37.4 °F 58% 30.26 in 10.0 mi Calm Calm - N/A   Mostly Cloudy
10:15 AM 51.8 °F - 39.2 °F 62% 30.28 in 10.0 mi North 10.4 mph - N/A   Overcast
10:35 AM 51.8 °F - 37.4 °F 58% 30.28 in 10.0 mi North 9.2 mph - N/A   Overcast
11:15 AM 50.0 °F - 42.8 °F 76% 30.29 in 10.0 mi North 8.1 mph - N/A   Overcast
11:35 AM 50.0 °F - 42.8 °F 76% 30.29 in 10.0 mi North 11.5 mph - N/A Thunderstorm Overcast
11:55 AM 50.0 °F - 42.8 °F 76% 30.29 in 10.0 mi North 9.2 mph - N/A   Overcast
12:15 PM 50.0 °F - 41.0 °F 71% 30.29 in 10.0 mi North 13.8 mph - N/A   Overcast
12:35 PM 50.0 °F - 39.2 °F 66% 30.29 in 10.0 mi North 13.8 mph 20.7 mph N/A   Overcast
12:55 PM 50.0 °F - 41.0 °F 71% 30.29 in 10.0 mi North 12.7 mph - N/A   Overcast
1:15 PM 51.8 °F - 41.0 °F 67% 30.28 in 10.0 mi North 12.7 mph - N/A   Overcast
1:35 PM 51.8 °F - 39.2 °F 62% 30.28 in 10.0 mi North 12.7 mph - N/A   Overcast
1:55 PM 51.8 °F - 39.2 °F 62% 30.27 in 10.0 mi North 13.8 mph 17.3 mph N/A   Overcast
2:15 PM 53.6 °F - 39.2 °F 58% 30.26 in 10.0 mi North 12.7 mph - N/A   Mostly Cloudy
2:35 PM 51.8 °F - 37.4 °F 58% 30.26 in 10.0 mi NNE 10.4 mph 18.4 mph N/A   Overcast
2:55 PM 53.6 °F - 37.4 °F 54% 30.25 in 10.0 mi North 12.7 mph - N/A   Overcast
3:15 PM 53.6 °F - 39.2 °F 58% 30.25 in 10.0 mi NNE 8.1 mph - N/A   Overcast
3:35 PM 55.4 °F - 39.2 °F 54% 30.24 in 10.0 mi North 13.8 mph - N/A   Mostly Cloudy
3:55 PM 57.2 °F - 39.2 °F 51% 30.23 in 10.0 mi North 11.5 mph 16.1 mph N/A   Mostly Cloudy
4:15 PM 59.0 °F - 37.4 °F 45% 30.22 in 10.0 mi NNE 13.8 mph 20.7 mph N/A   Mostly Cloudy
4:35 PM 59.0 °F - 37.4 °F 45% 30.22 in 10.0 mi NNE 13.8 mph 17.3 mph N/A   Scattered Clouds
4:55 PM 60.8 °F - 37.4 °F 42% 30.22 in 10.0 mi NNE 13.8 mph 21.9 mph N/A   Partly Cloudy
5:15 PM 60.8 °F - 37.4 °F 42% 30.22 in 10.0 mi North 15.0 mph 18.4 mph N/A   Mostly Cloudy
5:35 PM 57.2 °F - 37.4 °F 48% 30.23 in 10.0 mi NNE 11.5 mph 21.9 mph N/A   Mostly Cloudy
5:55 PM 57.2 °F - 37.4 °F 48% 30.24 in 10.0 mi NNE 12.7 mph 20.7 mph N/A   Mostly Cloudy
6:15 PM 55.4 °F - 37.4 °F 51% 30.25 in 10.0 mi North 12.7 mph 18.4 mph N/A   Mostly Cloudy
6:35 PM 55.4 °F - 35.6 °F 47% 30.26 in 10.0 mi NNE 10.4 mph 17.3 mph N/A   Mostly Cloudy
6:55 PM 55.4 °F - 35.6 °F 47% 30.27 in 10.0 mi NNE 6.9 mph - N/A   Mostly Cloudy
7:15 PM 55.4 °F - 35.6 °F 47% 30.28 in 10.0 mi North 13.8 mph - N/A   Mostly Cloudy
7:35 PM 55.4 °F - 35.6 °F 47% 30.29 in 10.0 mi North 10.4 mph - N/A   Mostly Cloudy
7:55 PM 53.6 °F - 35.6 °F 51% 30.30 in 10.0 mi NNE 9.2 mph 18.4 mph N/A   Mostly Cloudy
8:15 PM 53.6 °F - 33.8 °F 47% 30.30 in 10.0 mi NNE 10.4 mph 17.3 mph N/A   Mostly Cloudy
8:55 PM 51.8 °F - 33.8 °F 50% 30.31 in 10.0 mi NNE 6.9 mph - N/A   Mostly Cloudy
9:15 PM 51.8 °F - 33.8 °F 50% 30.33 in 10.0 mi NNE 9.2 mph - N/A   Mostly Cloudy
9:35 PM 51.8 °F - 33.8 °F 50% 30.33 in 10.0 mi North 5.8 mph - N/A   Scattered Clouds
10:15 PM 51.8 °F - 32.0 °F 47% 30.34 in 10.0 mi NNE 8.1 mph - N/A   Mostly Cloudy
10:35 PM 51.8 °F - 32.0 °F 47% 30.34 in 10.0 mi North 10.4 mph - N/A   Overcast
10:55 PM 51.8 °F - 32.0 °F 47% 30.35 in 10.0 mi NNE 5.8 mph - N/A   Mostly Cloudy
11:15 PM 50.0 °F - 32.0 °F 50% 30.35 in 10.0 mi North 4.6 mph - N/A   Mostly Cloudy
11:35 PM 48.2 °F - 32.0 °F 54% 30.35 in 10.0 mi North 9.2 mph - N/A   Scattered Clouds
11:55 PM 46.4 °F 44.3 °F 32.0 °F 57% 30.35 in 10.0 mi North 4.6 mph - N/A   Partly Cloudy